Second Mesa, Arizona
Current Conditions -  °F | °C
As of 7:56 PM on Friday 28 Nov 2014 (Local Time) from KINW Reporting Station
Clear Clear  
Wind Chill: 10°   Ceiling: Unl
Heat Index: 10°   Visibility: 10mi
Dew Point: -10°   Wind: 12mph
Humidity: 24%   Direction: 220°SW
Pressure: 30.05"   Gusts: NA
Location:  35.82°N, 110.5°W
Report Text: KINW 290256Z AUTO 22010KT 10SM CLR 10/M10 A3005 RMK AO2 SLP171 T01001100 58000
Loading
Personal Weather Stations






























Interactive Weather Map New forecast layout! Learn more

10-Day Weather Forecast

Advertisements
Track Severe Weather on mobile